East Lynn, Massachusetts
Current Conditions -  °F | °C
As of 10:53 AM on Sunday 25 Jan 2015 (Local Time) from KBVY Reporting Station
Broken Clouds Broken Clouds  
Wind Chill: 28°   Ceiling: 6000
Heat Index: 37°   Visibility: 10mi
Dew Point: 24°   Wind: 15mph
Humidity: 59%   Direction: 280°W
Pressure: 29.58"   Gusts: 31mph
Location:  42.4911°N, 70.9658°W
Report Text: KBVY 251553Z 28013G27KT 10SM BKN060 03/M04 A2958 RMK AO2 PK WND 29027/1548 SLP013 T00281044 $
Loading
Personal Weather Stations






























Interactive Weather Map New forecast layout! Learn more

10-Day Weather Forecast

Advertisements
Track Severe Weather on mobile